Aviation Digital Data Service (ADDS)

Output produced by METARs form (1741 UTC 16 June 2019)
found at http://www.aviationweather.gov/metar/data/
 
KJAC 161721Z 1618/1718 19007KT P6SM SCT080 
     FM162100 24012KT P6SM VCTS SCT070 BKN090CB 
     FM170100 VRB04KT P6SM BKN120 AMD LTD TO CLD VIS AND WIND
       
KJAN 161730Z 1618/1718 19009KT P6SM BKN050 
     FM162030 21010G20KT P6SM VCTS BKN040CB 
     FM170000 16005KT P6SM OVC100
       
KJAX 161720Z 1618/1718 VRB10G20KT 3SM -TSRA BKN035CB 
     FM161900 13007KT P6SM VCSH SCT030 BKN100 BKN200 
     FM170200 12005KT P6SM FEW020 SCT250 
     FM171500 16007KT P6SM SCT025
       
KJBR 161723Z 1618/1718 20014G22KT P6SM BKN030 
     FM162000 22015G22KT P6SM VCTS BKN035CB OVC150 
     FM170100 21007KT P6SM VCSH SCT050 BKN200 
     FM170600 20005KT P6SM BKN200 
     FM171300 19009KT P6SM BKN025 
     FM171600 20011KT P6SM VCSH BKN035
       
KJFK 161723Z 1618/1724 19014KT P6SM SCT060 BKN100 
     FM162200 23012KT 6SM -SHRA BR VCTS BKN040CB 
     FM170000 24010KT P6SM VCSH BKN040 
     FM170400 28006KT P6SM SCT040 BKN100 
     FM170800 34005KT P6SM SCT012 SCT040 BKN100 
     FM171300 01006KT P6SM FEW012 SCT040 BKN100 
     FM171800 18008KT P6SM SCT040 BKN150
       
KJER 161739Z 1618/1718 25013G21KT P6SM SCT120 
     FM170400 VRB06KT P6SM BKN100
       
KJHW 161734Z 1618/1718 35005KT 2SM -SHRA OVC004 
     FM162000 01006KT P6SM VCSH OVC008 
     FM162200 02005KT P6SM BKN015 
     FM170400 VRB03KT 2SM BR VCSH BKN006 
     FM171500 10005KT P6SM BKN015
       
KJMS 161728Z 1618/1718 29011KT P6SM BKN025 
     FM162000 32013G21KT P6SM FEW035 SCT080 
     FM170500 VRB05KT P6SM VCSH SCT050 BKN060 
     FM171400 32008KT P6SM FEW035 SCT050
       
KJST 161540Z 1616/1712 25012G22KT P6SM VCSH OVC010 
     FM161800 26010G20KT P6SM VCSH BKN025 
     FM170400 21007KT 5SM -SHRA BR BKN006 OVC012